Time;durP1;ratioP1;P1;durP2;ratioP2;P2;SDS_P1;SDS_P2;PMS_P1;PMS_P2;Temp;Humidity;BMP_temperature;BMP_pressure;BME280_temperature;BME280_humidity;BME280_pressure;Samples;Min_cycle;Max_cycle;Signal;HPM_P1;HPM_P2
2022/01/27 00:02:55;;;;;;;;;;;;;;;;;;4968310;28;22678;-76
2022/01/27 00:05:25;;;;;;;;;;;;;;;;;;4973457;28;19979;-77
2022/01/27 00:13:01;;;;;;;;;;;;;;;;;;4969657;28;20143;-76
2022/01/27 00:15:33;;;;;;;;;;;;;;;;;;4982962;28;20288;-75
2022/01/27 00:18:03;;;;;;;;;;;;;;;;;;4990428;28;20440;-76
2022/01/27 00:20:29;;;;;;;;;;;;;;;;;;4971304;28;19926;-76
2022/01/27 00:22:55;;;;;;;;;;;;;;;;;;4968337;28;20407;-76
2022/01/27 00:25:21;;;;;;;;;;;;;;;;;;4971836;28;19929;-76
2022/01/27 00:27:47;;;;;;;;;;;;;;;;;;4962707;28;19932;-76
2022/01/27 00:30:13;;;;;;;;;;;;;;;;;;4967800;28;19935;-76
2022/01/27 00:32:39;;;;;;;;;;;;;;;;;;4984989;28;19931;-76
2022/01/27 00:35:05;;;;;;;;;;;;;;;;;;4955607;28;19967;-76
2022/01/27 00:37:31;;;;;;;;;;;;;;;;;;4980889;28;19976;-76
2022/01/27 00:39:57;;;;;;;;;;;;;;;;;;4986671;28;19930;-76
2022/01/27 00:42:25;;;;;;;;;;;;;;;;;;4957423;28;19933;-76
2022/01/27 00:44:54;;;;;;;;;;;;;;;;;;4985100;28;19929;-76
2022/01/27 00:47:20;;;;;;;;;;;;;;;;;;4986515;28;19930;-76
2022/01/27 00:49:46;;;;;;;;;;;;;;;;;;4966968;28;20355;-76
2022/01/27 00:52:20;;;;;;;;;;;;;;;;;;4954544;28;19929;-76
2022/01/27 00:54:46;;;;;;;;;;;;;;;;;;4959960;28;19929;-76
2022/01/27 00:57:31;;;;;;;;;;;;;;;;;;4968844;28;19925;-76
2022/01/27 01:00:01;;;;;;;;;;;;;;;;;;4966040;28;19936;-76
2022/01/27 01:07:39;;;;;;;;;;;;;;;;;;4981031;28;19922;-76
2022/01/27 01:15:20;;;;;;;;;;;;;;;;;;4983263;28;19925;-76
2022/01/27 01:33:56;;;;;;;;;;;;;;;;;;4963016;28;20335;-76
2022/01/27 01:36:48;;;;;;;;;;;;;;;;;;4970183;28;19973;-76
2022/01/27 01:39:08;;;;;;;;;;;;;;;;;;4965519;28;20365;-76
2022/01/27 01:41:34;;;;;;;;;;;;;;;;;;4952302;28;19980;-76
2022/01/27 01:44:00;;;;;;;;;;;;;;;;;;4990837;28;21291;-76
2022/01/27 01:46:26;;;;;;;;;;;;;;;;;;4984953;28;19921;-76
2022/01/27 01:48:52;;;;;;;;;;;;;;;;;;4985980;28;20343;-76
2022/01/27 01:51:18;;;;;;;;;;;;;;;;;;4968599;28;19928;-76
2022/01/27 01:53:44;;;;;;;;;;;;;;;;;;4963013;28;20297;-76
2022/01/27 01:56:10;;;;;;;;;;;;;;;;;;4972406;28;19926;-76
2022/01/27 01:58:36;;;;;;;;;;;;;;;;;;4983564;28;20451;-76
2022/01/27 02:01:02;;;;;;;;;;;;;;;;;;4954816;28;20356;-76
2022/01/27 02:03:28;;;;;;;;;;;;;;;;;;4964743;28;19925;-76
2022/01/27 02:05:56;;;;;;;;;;;;;;;;;;4954442;28;20312;-76
2022/01/27 02:18:44;;;;;;;;;;;;;;;;;;4965105;28;19940;-76
2022/01/27 02:21:10;;;;;;;;;;;;;;;;;;4957141;28;19930;-76
2022/01/27 02:23:36;;;;;;;;;;;;;;;;;;4946668;28;20358;-76
2022/01/27 02:26:01;;;;;;;;;;;;;;;;;;4959083;28;20576;-76
2022/01/27 02:28:27;;;;;;;;;;;;;;;;;;4965318;28;19940;-76
2022/01/27 02:30:53;;;;;;;;;;;;;;;;;;4955978;28;19931;-76
2022/01/27 02:33:19;;;;;;;;;;;;;;;;;;4952535;28;19932;-76
2022/01/27 02:35:45;;;;;;;;;;;;;;;;;;4949950;28;21796;-76
2022/01/27 02:38:11;;;;;;;;;;;;;;;;;;4967861;28;20315;-76
2022/01/27 02:40:37;;;;;;;;;;;;;;;;;;4978879;28;19969;-76
2022/01/27 02:43:03;;;;;;;;;;;;;;;;;;4951989;28;19941;-76
2022/01/27 02:45:29;;;;;;;;;;;;;;;;;;4952453;28;20418;-76
2022/01/27 02:47:55;;;;;;;;;;;;;;;;;;4968565;28;21195;-75
2022/01/27 02:50:21;;;;;;;;;;;;;;;;;;4982807;28;20441;-76
2022/01/27 02:52:47;;;;;;;;;;;;;;;;;;4980240;28;20084;-76
2022/01/27 02:55:13;;;;;;;;;;;;;;;;;;4985763;28;20280;-76
2022/01/27 02:57:39;;;;;;;;;;;;;;;;;;4982668;28;19933;-76
2022/01/27 03:00:05;;;;;;;;;;;;;;;;;;4988080;28;20008;-76
2022/01/27 03:02:32;;;;;;;;;;;;;;;;;;4963541;28;20353;-76
2022/01/27 03:04:58;;;;;;;;;;;;;;;;;;4966535;28;19929;-76
2022/01/27 03:07:24;;;;;;;;;;;;;;;;;;4950709;28;20372;-76
2022/01/27 03:09:51;;;;;;;;;;;;;;;;;;4950069;28;20004;-75
2022/01/27 03:12:17;;;;;;;;;;;;;;;;;;4982821;28;20244;-75
2022/01/27 03:14:43;;;;;;;;;;;;;;;;;;4947414;28;19925;-76
2022/01/27 03:17:09;;;;;;;;;;;;;;;;;;4967897;28;20048;-76
2022/01/27 03:19:36;;;;;;;;;;;;;;;;;;4951956;28;20064;-76
2022/01/27 03:22:03;;;;;;;;;;;;;;;;;;4949618;28;20311;-76
2022/01/27 03:24:30;;;;;;;;;;;;;;;;;;4962547;28;19926;-76
2022/01/27 03:26:56;;;;;;;;;;;;;;;;;;4958302;28;19999;-76
2022/01/27 03:29:23;;;;;;;;;;;;;;;;;;4972555;28;19929;-75
2022/01/27 03:31:49;;;;;;;;;;;;;;;;;;4985070;28;19929;-76
2022/01/27 03:34:15;;;;;;;;;;;;;;;;;;4987045;28;20423;-76
2022/01/27 03:36:41;;;;;;;;;;;;;;;;;;4952300;28;19932;-76
2022/01/27 03:39:08;;;;;;;;;;;;;;;;;;4968442;28;19932;-76
2022/01/27 03:41:35;;;;;;;;;;;;;;;;;;4962179;28;20368;-76
2022/01/27 03:44:02;;;;;;;;;;;;;;;;;;4973962;28;19980;-76
2022/01/27 03:46:28;;;;;;;;;;;;;;;;;;4982455;28;19937;-76
2022/01/27 03:48:54;;;;;;;;;;;;;;;;;;4975550;28;19933;-76
2022/01/27 03:51:19;;;;;;;;;;;;;;;;;;4966886;28;20281;-76
2022/01/27 03:53:46;;;;;;;;;;;;;;;;;;4953926;28;20474;-76
2022/01/27 03:56:12;;;;;;;;;;;;;;;;;;4958115;28;19929;-76
2022/01/27 03:58:37;;;;;;;;;;;;;;;;;;4965153;28;19926;-76
2022/01/27 04:01:03;;;;;;;;;;;;;;;;;;4955436;28;20349;-76
2022/01/27 04:03:31;;;;;;;;;;;;;;;;;;4965982;28;19972;-77
2022/01/27 04:06:03;;;;;;;;;;;;;;;;;;4968486;28;19930;-76
2022/01/27 04:08:29;;;;;;;;;;;;;;;;;;4963183;28;19934;-76
2022/01/27 04:10:55;;;;;;;;;;;;;;;;;;4953583;28;19926;-76
2022/01/27 04:13:21;;;;;;;;;;;;;;;;;;4966941;28;19933;-76
2022/01/27 04:15:47;;;;;;;;;;;;;;;;;;4965883;28;19930;-76
2022/01/27 04:18:13;;;;;;;;;;;;;;;;;;4967288;28;19925;-76
2022/01/27 04:20:39;;;;;;;;;;;;;;;;;;4963732;28;19937;-76
2022/01/27 04:23:05;;;;;;;;;;;;;;;;;;4970607;28;20013;-76
2022/01/27 04:25:31;;;;;;;;;;;;;;;;;;4967941;28;20372;-76
2022/01/27 04:28:02;;;;;;;;;;;;;;;;;;4968761;28;19930;-76
2022/01/27 04:30:28;;;;;;;;;;;;;;;;;;4958053;28;19934;-76
2022/01/27 04:33:00;;;;;;;;;;;;;;;;;;4974420;28;20747;-76
2022/01/27 04:35:28;;;;;;;;;;;;;;;;;;4959472;28;20429;-75
2022/01/27 04:48:49;;;;;;;;;;;;;;;;;;4985469;28;19929;-75
2022/01/27 04:51:18;;;;;;;;;;;;;;;;;;4983256;28;19953;-76
2022/01/27 04:53:51;;;;;;;;;;;;;;;;;;4965335;28;19925;-76
2022/01/27 04:56:18;;;;;;;;;;;;;;;;;;4985106;28;20443;-76
2022/01/27 04:58:47;;;;;;;;;;;;;;;;;;4954316;28;19930;-76
2022/01/27 05:01:15;;;;;;;;;;;;;;;;;;4955001;28;20412;-76
2022/01/27 05:06:07;;;;;;;;;;;;;;;;;;4968042;28;19933;-76
2022/01/27 05:08:33;;;;;;;;;;;;;;;;;;4967146;28;19930;-76
2022/01/27 05:11:16;;;;;;;;;;;;;;;;;;4973155;28;19971;-76
2022/01/27 05:14:09;;;;;;;;;;;;;;;;;;4954656;28;19950;-76
2022/01/27 05:16:28;;;;;;;;;;;;;;;;;;4968066;28;20451;-76
2022/01/27 05:18:54;;;;;;;;;;;;;;;;;;4957846;28;19925;-76
2022/01/27 05:21:20;;;;;;;;;;;;;;;;;;4958006;28;20629;-76
2022/01/27 05:23:46;;;;;;;;;;;;;;;;;;4963796;28;19972;-76
2022/01/27 05:26:12;;;;;;;;;;;;;;;;;;4967260;28;19940;-76
2022/01/27 05:28:38;;;;;;;;;;;;;;;;;;4949088;28;20349;-77
2022/01/27 05:31:05;;;;;;;;;;;;;;;;;;4971592;28;20635;-76
2022/01/27 05:33:31;;;;;;;;;;;;;;;;;;4964414;28;20273;-76
2022/01/27 05:35:57;;;;;;;;;;;;;;;;;;4970434;28;19937;-76
2022/01/27 05:38:23;;;;;;;;;;;;;;;;;;4971748;28;20288;-76
2022/01/27 05:40:49;;;;;;;;;;;;;;;;;;4966196;28;19983;-76
2022/01/27 05:43:15;;;;;;;;;;;;;;;;;;4972113;28;20750;-76
2022/01/27 05:45:41;;;;;;;;;;;;;;;;;;4952603;28;19930;-77
2022/01/27 05:48:07;;;;;;;;;;;;;;;;;;4970772;28;19917;-76
2022/01/27 05:50:33;;;;;;;;;;;;;;;;;;4950552;28;19941;-76
2022/01/27 05:52:59;;;;;;;;;;;;;;;;;;4955748;28;19972;-77
2022/01/27 05:55:25;;;;;;;;;;;;;;;;;;4969480;28;19965;-77
2022/01/27 05:57:54;;;;;;;;;;;;;;;;;;4969861;28;20090;-76
2022/01/27 06:00:20;;;;;;;;;;;;;;;;;;4968083;28;20027;-75
2022/01/27 06:02:46;;;;;;;;;;;;;;;;;;4965592;28;21177;-75
2022/01/27 06:05:12;;;;;;;;;;;;;;;;;;4953125;28;19944;-74
2022/01/27 06:07:38;;;;;;;;;;;;;;;;;;4947707;28;19941;-75
2022/01/27 06:10:04;;;;;;;;;;;;;;;;;;4944806;28;19940;-76
2022/01/27 06:12:30;;;;;;;;;;;;;;;;;;4941981;28;20200;-76
2022/01/27 06:14:56;;;;;;;;;;;;;;;;;;4972000;28;19940;-76
2022/01/27 06:17:22;;;;;;;;;;;;;;;;;;4969141;28;20383;-77
2022/01/27 06:19:48;;;;;;;;;;;;;;;;;;4982268;28;19980;-76
2022/01/27 06:22:14;;;;;;;;;;;;;;;;;;4987650;28;19929;-76
2022/01/27 06:24:40;;;;;;;;;;;;;;;;;;4968870;28;19933;-75
2022/01/27 06:27:06;;;;;;;;;;;;;;;;;;4985825;28;20288;-77
2022/01/27 06:29:32;;;;;;;;;;;;;;;;;;4967744;28;20455;-78
2022/01/27 06:31:58;;;;;;;;;;;;;;;;;;4972865;28;19964;-76
2022/01/27 06:34:24;;;;;;;;;;;;;;;;;;4964640;28;19929;-76
2022/01/27 06:36:53;;;;;;;;;;;;;;;;;;4989948;28;19983;-81
2022/01/27 06:39:19;;;;;;;;;;;;;;;;;;4972026;28;19933;-77
2022/01/27 06:41:47;;;;;;;;;;;;;;;;;;4971017;28;21696;-81
2022/01/27 06:44:13;;;;;;;;;;;;;;;;;;4974411;28;19936;-79
2022/01/27 06:46:39;;;;;;;;;;;;;;;;;;4968624;28;19925;-80
2022/01/27 06:49:05;;;;;;;;;;;;;;;;;;4969747;28;19929;-77
2022/01/27 06:51:31;;;;;;;;;;;;;;;;;;4967723;28;19929;-78
2022/01/27 06:53:57;;;;;;;;;;;;;;;;;;4967477;28;19979;-81
2022/01/27 06:56:23;;;;;;;;;;;;;;;;;;4970333;28;20059;-78
2022/01/27 06:58:49;;;;;;;;;;;;;;;;;;4952405;28;20842;-82
2022/01/27 07:01:15;;;;;;;;;;;;;;;;;;4947793;28;20458;-80
2022/01/27 07:03:52;;;;;;;;;;;;;;;;;;4965510;28;19926;-80
2022/01/27 07:06:30;;;;;;;;;;;;;;;;;;4982085;28;20317;-79
2022/01/27 07:09:00;;;;;;;;;;;;;;;;;;5043061;23;20036;-81
2022/01/27 07:12:28;;;;;;;;;;;;;;;;;;4986125;28;19931;-83
2022/01/27 07:14:57;;;;;;;;;;;;;;;;;;5017163;28;19928;-84
2022/01/27 07:20:42;;;;;;;;;;;;;;;;;;5009390;28;19951;-84
2022/01/27 07:23:23;;;;;;;;;;;;;;;;;;5004875;28;19927;-92
2022/01/27 07:28:44;;;;;;;;;;;;;;;;;;4998085;28;19925;-81
2022/01/27 07:31:22;;;;;;;;;;;;;;;;;;4994628;28;19998;-81
2022/01/27 07:33:48;;;;;;;;;;;;;;;;;;5013269;28;20364;-81
2022/01/27 07:39:12;;;;;;;;;;;;;;;;;;5009043;28;19929;-83
2022/01/27 07:41:47;;;;;;;;;;;;;;;;;;4998896;28;19971;-88
2022/01/27 07:44:48;;;;;;;;;;;;;;;;;;4930158;28;19929;-83
2022/01/27 07:47:21;;;;;;;;;;;;;;;;;;4928371;28;19993;-84
2022/01/27 07:49:50;;;;;;;;;;;;;;;;;;4982915;28;20042;-83
2022/01/27 07:52:25;;;;;;;;;;;;;;;;;;4987371;28;20011;-86
2022/01/27 07:57:46;;;;;;;;;;;;;;;;;;5019046;28;20365;-84
2022/01/27 08:00:20;;;;;;;;;;;;;;;;;;5001689;28;20390;-85
2022/01/27 08:02:51;;;;;;;;;;;;;;;;;;4996250;28;21443;-84
2022/01/27 08:05:18;;;;;;;;;;;;;;;;;;5000673;28;19929;-82
2022/01/27 08:07:44;;;;;;;;;;;;;;;;;;4995359;28;20036;-81
2022/01/27 08:10:10;;;;;;;;;;;;;;;;;;4980851;28;19933;-84
2022/01/27 08:12:36;;;;;;;;;;;;;;;;;;4964603;28;21073;-83
2022/01/27 08:15:06;;;;;;;;;;;;;;;;;;4975603;28;20327;-85
2022/01/27 08:17:41;;;;;;;;;;;;;;;;;;4971136;28;20011;-86
2022/01/27 08:20:08;;;;;;;;;;;;;;;;;;4990619;28;19932;-85
2022/01/27 08:25:26;;;;;;;;;;;;;;;;;;4980047;28;19975;-84
2022/01/27 08:27:58;;;;;;;;;;;;;;;;;;4979412;28;19921;-84
2022/01/27 08:30:44;;;;;;;;;;;;;;;;;;;;;
2022/01/27 08:33:15;;;;;;;;;;;;;;;;;;5008378;28;19929;-81
2022/01/27 08:35:47;;;;;;;;;;;;;;;;;;4985554;28;20361;-81
2022/01/27 08:41:31;;;;;;;;;;;;;;;;;;5006651;28;20248;-83
2022/01/27 08:47:07;;;;;;;;;;;;;;;;;;4934619;28;19926;-82
2022/01/27 08:49:33;;;;;;;;;;;;;;;;;;4918038;28;19954;-84
2022/01/27 08:51:59;;;;;;;;;;;;;;;;;;4919644;28;19970;-85
2022/01/27 08:54:27;;;;;;;;;;;;;;;;;;4936346;28;19926;-83
2022/01/27 08:59:58;;;;;;;;;;;;;;;;;;4924692;28;20346;-84
2022/01/27 09:02:31;;;;;;;;;;;;;;;;;;4915996;28;19926;-83
2022/01/27 09:05:00;;;;;;;;;;;;;;;;;;4956163;28;19926;-86
2022/01/27 09:07:39;;;;;;;;;;;;;;;;;;4968891;28;19929;-85
2022/01/27 09:10:23;;;;;;;;;;;;;;;;;;4991394;28;20407;-83
2022/01/27 09:12:53;;;;;;;;;;;;;;;;;;4984361;28;19956;-82
2022/01/27 09:15:22;;;;;;;;;;;;;;;;;;4972732;28;19992;-84
2022/01/27 09:17:56;;;;;;;;;;;;;;;;;;4984199;28;20845;-83
2022/01/27 09:20:25;;;;;;;;;;;;;;;;;;4984222;28;19925;-85
2022/01/27 09:22:53;;;;;;;;;;;;;;;;;;4990375;28;20032;-81
2022/01/27 09:25:29;;;;;;;;;;;;;;;;;;4983936;28;19929;-83
2022/01/27 09:28:01;;;;;;;;;;;;;;;;;;5002675;28;19979;-82
2022/01/27 09:30:27;;;;;;;;;;;;;;;;;;4983717;28;20355;-81
2022/01/27 09:32:56;;;;;;;;;;;;;;;;;;4989109;28;19925;-78
2022/01/27 09:35:29;;;;;;;;;;;;;;;;;;4986084;28;20292;-83
2022/01/27 09:37:56;;;;;;;;;;;;;;;;;;4976474;28;19929;-81
2022/01/27 09:40:22;;;;;;;;;;;;;;;;;;4983724;28;19926;-84
2022/01/27 09:42:51;;;;;;;;;;;;;;;;;;4988544;28;19926;-82
2022/01/27 09:45:17;;;;;;;;;;;;;;;;;;4971902;28;19925;-81
2022/01/27 09:47:43;;;;;;;;;;;;;;;;;;4981608;28;19929;-83
2022/01/27 09:50:27;;;;;;;;;;;;;;;;;;4990350;28;20283;-81
2022/01/27 09:52:55;;;;;;;;;;;;;;;;;;4970918;28;19929;-82
2022/01/27 09:55:21;;;;;;;;;;;;;;;;;;4973396;28;20356;-82
2022/01/27 09:57:47;;;;;;;;;;;;;;;;;;4980774;28;19933;-79
2022/01/27 10:00:24;;;;;;;;;;;;;;;;;;;;;
2022/01/27 10:03:07;;;;;;;;;;;;;;;;;;5006055;28;20280;-84
2022/01/27 10:05:33;;;;;;;;;;;;;;;;;;4967773;28;19929;-84
2022/01/27 10:08:02;;;;;;;;;;;;;;;;;;4988022;28;20024;-81
2022/01/27 10:10:28;;;;;;;;;;;;;;;;;;4981131;28;19960;-83
2022/01/27 10:12:58;;;;;;;;;;;;;;;;;;4988102;28;19925;-81
2022/01/27 10:15:27;;;;;;;;;;;;;;;;;;4985809;28;20351;-83
2022/01/27 10:17:56;;;;;;;;;;;;;;;;;;4988818;28;19929;-81
2022/01/27 10:20:25;;;;;;;;;;;;;;;;;;4983077;28;20028;-84
2022/01/27 10:22:55;;;;;;;;;;;;;;;;;;4968753;28;19927;-86
2022/01/27 10:28:26;;;;;;;;;;;;;;;;;;4991082;28;19921;-86
2022/01/27 10:30:55;;;;;;;;;;;;;;;;;;4978498;28;20063;-81
2022/01/27 10:33:21;;;;;;;;;;;;;;;;;;4975480;28;19936;-81
2022/01/27 10:35:47;;;;;;;;;;;;;;;;;;4988239;28;19921;-81
2022/01/27 10:38:14;;;;;;;;;;;;;;;;;;4976465;28;20403;-83
2022/01/27 10:40:40;;;;;;;;;;;;;;;;;;4985463;28;19930;-81
2022/01/27 10:43:08;;;;;;;;;;;;;;;;;;4988218;28;19936;-82
2022/01/27 10:45:35;;;;;;;;;;;;;;;;;;4999115;28;20189;-82
2022/01/27 10:48:19;;;;;;;;;;;;;;;;;;4986122;28;19925;-82
2022/01/27 10:51:00;;;;;;;;;;;;;;;;;;4968288;28;20025;-83
2022/01/27 10:53:27;;;;;;;;;;;;;;;;;;4985885;28;19967;-84
2022/01/27 10:55:53;;;;;;;;;;;;;;;;;;4987944;28;20407;-84
2022/01/27 10:58:19;;;;;;;;;;;;;;;;;;4969023;28;20076;-83
2022/01/27 11:01:04;;;;;;;;;;;;;;;;;;4981507;28;20265;-82
2022/01/27 11:03:35;;;;;;;;;;;;;;;;;;4982601;28;19928;-83
2022/01/27 11:06:02;;;;;;;;;;;;;;;;;;4988459;28;19929;-83
2022/01/27 11:08:31;;;;;;;;;;;;;;;;;;4981835;28;20018;-84
2022/01/27 11:10:57;;;;;;;;;;;;;;;;;;4988171;28;19934;-81
2022/01/27 11:13:26;;;;;;;;;;;;;;;;;;4989715;28;19987;-81
2022/01/27 11:15:55;;;;;;;;;;;;;;;;;;4974577;28;19921;-84
2022/01/27 11:18:25;;;;;;;;;;;;;;;;;;4988401;28;19961;-90
2022/01/27 11:21:10;;;;;;;;;;;;;;;;;;4975294;28;20012;-82
2022/01/27 11:26:09;;;;;;;;;;;;;;;;;;4984109;28;19921;-86
2022/01/27 11:28:35;;;;;;;;;;;;;;;;;;4965724;28;20012;-86
2022/01/27 11:34:07;;;;;;;;;;;;;;;;;;;;;
2022/01/27 11:36:37;;;;;;;;;;;;;;;;;;4998234;28;20419;-87
2022/01/27 11:42:05;;;;;;;;;;;;;;;;;;4988668;28;19929;-89
2022/01/27 11:44:36;;;;;;;;;;;;;;;;;;4981133;28;19967;-86
2022/01/27 11:47:02;;;;;;;;;;;;;;;;;;4988141;28;20012;-87
2022/01/27 11:49:31;;;;;;;;;;;;;;;;;;4970607;28;19996;-88
2022/01/27 11:52:02;;;;;;;;;;;;;;;;;;4977157;28;19992;-88
2022/01/27 11:54:34;;;;;;;;;;;;;;;;;;4972370;28;21127;-87
2022/01/27 12:00:11;;;;;;;;;;;;;;;;;;5014156;28;19923;-88
2022/01/27 12:02:37;;;;;;;;;;;;;;;;;;4974935;28;19957;-88
2022/01/27 12:05:12;;;;;;;;;;;;;;;;;;4982558;28;19949;-87
2022/01/27 12:07:38;;;;;;;;;;;;;;;;;;4979254;28;20431;-89
2022/01/27 12:10:04;;;;;;;;;;;;;;;;;;4984266;28;20356;-89
2022/01/27 12:12:33;;;;;;;;;;;;;;;;;;4992433;28;19925;-89
2022/01/27 12:15:06;;;;;;;;;;;;;;;;;;4999870;28;19971;-87
2022/01/27 12:17:34;;;;;;;;;;;;;;;;;;4967060;28;19975;-89
2022/01/27 12:20:00;;;;;;;;;;;;;;;;;;4995241;28;19929;-89
2022/01/27 12:22:28;;;;;;;;;;;;;;;;;;4986986;28;20304;-91
2022/01/27 12:24:54;;;;;;;;;;;;;;;;;;4992182;28;19983;-85
2022/01/27 12:27:33;;;;;;;;;;;;;;;;;;4986295;28;19932;-85
2022/01/27 12:29:59;;;;;;;;;;;;;;;;;;4992294;28;19933;-83
2022/01/27 12:32:27;;;;;;;;;;;;;;;;;;4979397;28;19928;-80
2022/01/27 12:37:57;;;;;;;;;;;;;;;;;;4984615;28;22580;-86
2022/01/27 12:40:28;;;;;;;;;;;;;;;;;;4972757;28;19952;-84
2022/01/27 12:43:02;;;;;;;;;;;;;;;;;;4977060;28;20388;-79
2022/01/27 12:45:29;;;;;;;;;;;;;;;;;;4985819;28;19956;-82
2022/01/27 12:48:10;;;;;;;;;;;;;;;;;;;;;
2022/01/27 12:50:38;;;;;;;;;;;;;;;;;;4981525;28;20463;-84
2022/01/27 12:53:14;;;;;;;;;;;;;;;;;;4974431;28;19926;-79
2022/01/27 12:58:49;;;;;;;;;;;;;;;;;;4949990;28;20389;-84
2022/01/27 13:01:19;;;;;;;;;;;;;;;;;;4945969;28;19938;-76
2022/01/27 13:03:53;;;;;;;;;;;;;;;;;;4958481;28;24766;-86
2022/01/27 13:06:32;;;;;;;;;;;;;;;;;;4984531;28;19925;-84
2022/01/27 13:08:58;;;;;;;;;;;;;;;;;;4985623;28;19933;-84
2022/01/27 13:11:33;;;;;;;;;;;;;;;;;;4978445;28;20012;-86
2022/01/27 13:14:13;;;;;;;;;;;;;;;;;;4979505;28;20549;-82
2022/01/27 13:16:40;;;;;;;;;;;;;;;;;;4977560;28;20016;-90
2022/01/27 13:19:20;;;;;;;;;;;;;;;;;;4984318;28;19975;-84
2022/01/27 13:21:53;;;;;;;;;;;;;;;;;;4981412;28;19989;-87
2022/01/27 13:24:20;;;;;;;;;;;;;;;;;;4986538;28;20356;-85
2022/01/27 13:26:46;;;;;;;;;;;;;;;;;;4977700;28;20013;-83
2022/01/27 13:29:13;;;;;;;;;;;;;;;;;;4982176;28;19934;-86
2022/01/27 13:31:39;;;;;;;;;;;;;;;;;;4975320;28;19929;-81
2022/01/27 13:34:05;;;;;;;;;;;;;;;;;;5015265;28;19928;-81
2022/01/27 13:36:35;;;;;;;;;;;;;;;;;;4987285;28;20362;-88
2022/01/27 13:41:43;;;;;;;;;;;;;;;;;;;;;
2022/01/27 13:44:16;;;;;;;;;;;;;;;;;;4995190;28;19929;-81
2022/01/27 13:46:42;;;;;;;;;;;;;;;;;;4996705;28;19928;-86
2022/01/27 13:49:09;;;;;;;;;;;;;;;;;;4998357;28;19926;-85
2022/01/27 13:51:40;;;;;;;;;;;;;;;;;;5005021;28;19922;-90
2022/01/27 13:54:06;;;;;;;;;;;;;;;;;;4992765;28;20364;-90
2022/01/27 13:56:32;;;;;;;;;;;;;;;;;;4990748;28;19922;-87
2022/01/27 13:58:58;;;;;;;;;;;;;;;;;;4982150;28;19988;-87
2022/01/27 14:01:27;;;;;;;;;;;;;;;;;;4995888;28;19934;-87
2022/01/27 14:03:53;;;;;;;;;;;;;;;;;;4983004;28;19991;-86
2022/01/27 14:06:21;;;;;;;;;;;;;;;;;;4998880;28;19933;-85
2022/01/27 14:08:51;;;;;;;;;;;;;;;;;;4993256;28;20029;-88
2022/01/27 14:11:20;;;;;;;;;;;;;;;;;;4978012;28;19934;-88
2022/01/27 14:13:49;;;;;;;;;;;;;;;;;;4983959;28;19929;-85
2022/01/27 14:16:16;;;;;;;;;;;;;;;;;;4994252;28;20329;-86
2022/01/27 14:18:43;;;;;;;;;;;;;;;;;;4996714;28;20384;-86
2022/01/27 14:21:14;;;;;;;;;;;;;;;;;;4992686;28;19934;-84
2022/01/27 14:23:56;;;;;;;;;;;;;;;;;;5003055;28;19921;-90
2022/01/27 14:32:18;;;;;;;;;;;;;;;;;;5008622;28;19986;-85
2022/01/27 14:34:44;;;;;;;;;;;;;;;;;;4993428;28;19933;-86
2022/01/27 14:37:10;;;;;;;;;;;;;;;;;;4992989;28;20015;-87
2022/01/27 14:39:36;;;;;;;;;;;;;;;;;;4975943;28;19925;-85
2022/01/27 14:42:02;;;;;;;;;;;;;;;;;;4992197;28;20319;-84
2022/01/27 14:44:31;;;;;;;;;;;;;;;;;;4984181;28;19971;-90
2022/01/27 14:46:58;;;;;;;;;;;;;;;;;;4998915;28;19921;-85
2022/01/27 14:49:24;;;;;;;;;;;;;;;;;;4982466;28;19934;-88
2022/01/27 14:51:51;;;;;;;;;;;;;;;;;;4996079;28;20327;-85
2022/01/27 14:54:16;;;;;;;;;;;;;;;;;;4994661;28;19925;-82
2022/01/27 14:56:58;;;;;;;;;;;;;;;;;;4977817;28;20028;-91
2022/01/27 14:59:24;;;;;;;;;;;;;;;;;;4977342;28;19927;-87
2022/01/27 15:01:50;;;;;;;;;;;;;;;;;;4990655;28;19932;-84
2022/01/27 15:04:16;;;;;;;;;;;;;;;;;;4994634;28;19933;-85
2022/01/27 15:06:42;;;;;;;;;;;;;;;;;;4991730;28;19978;-88
2022/01/27 15:09:08;;;;;;;;;;;;;;;;;;4991565;28;19929;-87
2022/01/27 15:11:35;;;;;;;;;;;;;;;;;;5012096;28;19930;-88
2022/01/27 15:18:48;;;;;;;;;;;;;;;;;;5000015;28;19922;-86
2022/01/27 15:19:42;;;;;;;;;;;;;;;;;;4996175;28;19926;-87
2022/01/27 15:22:25;;;;;;;;;;;;;;;;;;5015900;28;19949;-91
2022/01/27 15:25:07;;;;;;;;;;;;;;;;;;4973713;28;19962;-86
2022/01/27 15:27:33;;;;;;;;;;;;;;;;;;4972244;28;19929;-85
2022/01/27 15:29:59;;;;;;;;;;;;;;;;;;4964642;28;19932;-88
2022/01/27 15:35:37;;;;;;;;;;;;;;;;;;4954546;28;19930;-85
2022/01/27 15:38:06;;;;;;;;;;;;;;;;;;4948640;28;19930;-87
2022/01/27 15:40:35;;;;;;;;;;;;;;;;;;4944201;28;20363;-86
2022/01/27 15:43:02;;;;;;;;;;;;;;;;;;4963544;28;20054;-85
2022/01/27 15:45:29;;;;;;;;;;;;;;;;;;4974057;28;19922;-85
2022/01/27 15:48:13;;;;;;;;;;;;;;;;;;4964122;28;19928;-84
2022/01/27 15:50:44;;;;;;;;;;;;;;;;;;4971737;28;20502;-85
2022/01/27 15:53:11;;;;;;;;;;;;;;;;;;4953814;28;19957;-84
2022/01/27 15:55:47;;;;;;;;;;;;;;;;;;4973749;28;19953;-85
2022/01/27 15:58:20;;;;;;;;;;;;;;;;;;4933850;28;19922;-84
2022/01/27 16:00:53;;;;;;;;;;;;;;;;;;4975472;28;20021;-84
2022/01/27 16:03:28;;;;;;;;;;;;;;;;;;4963821;28;19936;-84
2022/01/27 16:05:55;;;;;;;;;;;;;;;;;;5000846;28;19981;-84
2022/01/27 16:08:24;;;;;;;;;;;;;;;;;;4978800;28;19929;-84
2022/01/27 16:10:56;;;;;;;;;;;;;;;;;;4988320;28;19935;-84
2022/01/27 16:13:26;;;;;;;;;;;;;;;;;;5002325;28;19968;-85
2022/01/27 16:15:58;;;;;;;;;;;;;;;;;;5002406;28;19951;-85
2022/01/27 16:18:30;;;;;;;;;;;;;;;;;;4984812;28;19924;-85
2022/01/27 16:20:57;;;;;;;;;;;;;;;;;;5002837;28;19929;-85
2022/01/27 16:23:31;;;;;;;;;;;;;;;;;;4988636;28;19960;-84
2022/01/27 16:26:03;;;;;;;;;;;;;;;;;;4985413;28;19921;-84
2022/01/27 16:28:29;;;;;;;;;;;;;;;;;;4991943;28;19929;-84
2022/01/27 16:30:55;;;;;;;;;;;;;;;;;;4984747;28;23313;-84
2022/01/27 16:33:27;;;;;;;;;;;;;;;;;;4985324;28;19943;-84
2022/01/27 16:35:54;;;;;;;;;;;;;;;;;;4984554;28;19932;-84
2022/01/27 16:38:23;;;;;;;;;;;;;;;;;;4981274;28;19947;-84
2022/01/27 16:41:12;;;;;;;;;;;;;;;;;;4997993;28;20334;-84
2022/01/27 16:43:44;;;;;;;;;;;;;;;;;;4994106;28;19925;-84
2022/01/27 16:46:13;;;;;;;;;;;;;;;;;;4997109;28;20402;-85
2022/01/27 16:48:40;;;;;;;;;;;;;;;;;;4981452;28;20287;-84
2022/01/27 16:54:07;;;;;;;;;;;;;;;;;;5002431;28;19921;-85
2022/01/27 16:56:38;;;;;;;;;;;;;;;;;;4972759;28;19925;-87
2022/01/27 16:59:46;;;;;;;;;;;;;;;;;;5012318;28;19935;-85
2022/01/27 17:02:19;;;;;;;;;;;;;;;;;;4987965;28;20358;-89
2022/01/27 17:04:52;;;;;;;;;;;;;;;;;;4993100;28;19932;-86
2022/01/27 17:23:34;;;;;;;;;;;;;;;;;;;;;
2022/01/27 17:26:31;;;;;;;;;;;;;;;;;;4949046;28;19926;-86
2022/01/27 17:29:10;;;;;;;;;;;;;;;;;;4930988;28;19926;-85
2022/01/27 17:47:59;;;;;;;;;;;;;;;;;;;;;
2022/01/27 17:51:08;;;;;;;;;;;;;;;;;;4858080;29;20420;-87
2022/01/27 17:53:37;;;;;;;;;;;;;;;;;;4890690;29;19931;-86
2022/01/27 17:56:03;;;;;;;;;;;;;;;;;;4884273;29;20061;-85
2022/01/27 17:58:36;;;;;;;;;;;;;;;;;;4967654;28;20852;-86
2022/01/27 18:01:15;;;;;;;;;;;;;;;;;;;;;
2022/01/27 18:03:47;;;;;;;;;;;;;;;;;;5003881;28;19961;-85
2022/01/27 18:06:23;;;;;;;;;;;;;;;;;;5001794;28;19929;-87
2022/01/27 18:08:49;;;;;;;;;;;;;;;;;;4994706;28;19930;-86
2022/01/27 18:11:23;;;;;;;;;;;;;;;;;;4974145;28;20055;-85
2022/01/27 18:13:52;;;;;;;;;;;;;;;;;;4974048;28;20350;-85
2022/01/27 18:25:51;;;;;;;;;;;;;;;;;;4936587;28;19926;-85
2022/01/27 18:48:00;;;;;;;;;;;;;;;;;;4949841;28;19921;-85
2022/01/27 18:56:57;;;;;;;;;;;;;;;;;;5001218;28;19939;-85
2022/01/27 18:59:43;;;;;;;;;;;;;;;;;;4986440;28;19932;-84
2022/01/27 19:02:20;;;;;;;;;;;;;;;;;;4988791;28;19968;-85
2022/01/27 19:05:16;;;;;;;;;;;;;;;;;;;;;
2022/01/27 19:13:29;;;;;;;;;;;;;;;;;;5564365;22;19930;-85
2022/01/27 19:25:13;;;;;;;;;;;;;;;;;;5139640;23;19968;-89
2022/01/27 19:27:47;;;;;;;;;;;;;;;;;;4962127;28;20012;-90
2022/01/27 19:33:47;;;;;;;;;;;;;;;;;;4972026;28;19929;-88
2022/01/27 19:36:35;;;;;;;;;;;;;;;;;;4962695;28;19949;-90
2022/01/27 19:57:02;;;;;;;;;;;;;;;;;;4934130;28;19926;-91
2022/01/27 20:03:04;;;;;;;;;;;;;;;;;;4918665;28;19926;-89
2022/01/27 20:06:06;;;;;;;;;;;;;;;;;;4932050;28;19930;-89
2022/01/27 20:08:51;;;;;;;;;;;;;;;;;;4931737;28;19934;-89
2022/01/27 20:11:23;;;;;;;;;;;;;;;;;;4923662;29;20279;-88
2022/01/27 20:14:00;;;;;;;;;;;;;;;;;;4918138;28;19923;-90
2022/01/27 20:19:26;;;;;;;;;;;;;;;;;;4913846;28;19926;-90
2022/01/27 20:22:09;;;;;;;;;;;;;;;;;;;;;
2022/01/27 20:27:33;;;;;;;;;;;;;;;;;;4938235;28;20455;-89
2022/01/27 20:30:10;;;;;;;;;;;;;;;;;;;;;
2022/01/27 20:32:53;;;;;;;;;;;;;;;;;;4925177;28;19935;-90
2022/01/27 20:38:23;;;;;;;;;;;;;;;;;;4889220;29;19977;-90
2022/01/27 20:46:56;;;;;;;;;;;;;;;;;;4911746;29;19937;-90
2022/01/27 20:49:27;;;;;;;;;;;;;;;;;;4901128;29;20405;-90
2022/01/27 20:51:56;;;;;;;;;;;;;;;;;;4949132;28;19922;-91
2022/01/27 20:54:34;;;;;;;;;;;;;;;;;;4960652;28;19930;-89
2022/01/27 20:57:21;;;;;;;;;;;;;;;;;;4941876;28;20034;-89
2022/01/27 21:00:02;;;;;;;;;;;;;;;;;;4939650;28;19930;-88
2022/01/27 21:02:38;;;;;;;;;;;;;;;;;;;;;
2022/01/27 21:05:15;;;;;;;;;;;;;;;;;;4957503;28;19918;-89
2022/01/27 21:07:52;;;;;;;;;;;;;;;;;;4939694;28;19976;-89
2022/01/27 21:10:18;;;;;;;;;;;;;;;;;;4948966;28;19957;-89
2022/01/27 21:13:14;;;;;;;;;;;;;;;;;;4949670;28;21507;-88
2022/01/27 21:15:54;;;;;;;;;;;;;;;;;;4945141;28;20013;-89